createdAt,value
2022-12-23T10:21:47.812Z,4.11
2022-12-23T10:23:30.536Z,4.10
2022-12-23T10:25:04.612Z,4.14
2022-12-23T10:26:48.901Z,4.19
2022-12-23T10:28:21.084Z,4.26
2022-12-23T10:29:53.263Z,4.31
2022-12-23T10:31:41.369Z,4.29
2022-12-23T10:33:20.723Z,4.33
2022-12-23T10:35:04.884Z,4.35
2022-12-23T10:36:48.846Z,4.37
2022-12-23T10:38:39.798Z,4.37
2022-12-23T10:40:21.596Z,4.31
2022-12-23T10:42:20.479Z,4.30
2022-12-23T10:44:13.198Z,4.33
2022-12-23T10:46:04.014Z,4.36
2022-12-23T10:48:23.866Z,4.44
2022-12-23T10:50:24.100Z,4.41
2022-12-23T10:52:09.407Z,4.46
2022-12-23T10:54:13.009Z,4.53
2022-12-23T10:55:45.645Z,4.57
2022-12-23T10:57:19.927Z,4.52
2022-12-23T10:58:56.802Z,4.53
2022-12-23T11:00:29.370Z,4.47
2022-12-23T11:02:11.104Z,4.46
2022-12-23T11:04:05.850Z,4.44
2022-12-23T11:05:38.301Z,4.41
2022-12-23T11:09:21.993Z,4.26
2022-12-23T11:10:54.947Z,4.27
2022-12-23T11:12:43.185Z,4.26
2022-12-23T11:14:40.173Z,4.33
2022-12-23T11:16:25.762Z,4.32
2022-12-23T11:18:11.593Z,4.38
2022-12-23T11:19:45.197Z,4.42
2022-12-23T11:21:17.987Z,4.46
2022-12-23T11:22:55.948Z,4.38
2022-12-23T11:24:39.741Z,4.44
2022-12-23T11:26:20.669Z,4.47
2022-12-23T11:27:59.041Z,4.51
2022-12-23T11:29:37.488Z,4.51
2022-12-23T11:31:14.576Z,4.50
2022-12-23T11:32:47.127Z,4.54
2022-12-23T11:34:22.609Z,4.51
2022-12-23T11:36:13.151Z,4.53
2022-12-23T11:37:45.319Z,4.59
2022-12-23T11:39:26.790Z,4.55
2022-12-23T11:40:59.487Z,4.52
2022-12-23T11:42:37.874Z,4.45
2022-12-23T11:44:18.836Z,4.44
2022-12-23T11:46:16.411Z,4.45
2022-12-23T11:47:49.496Z,4.51
2022-12-23T11:49:23.363Z,4.59
2022-12-23T11:51:01.782Z,4.66
2022-12-23T11:52:34.278Z,4.64
2022-12-23T11:54:07.188Z,4.60
2022-12-23T11:56:05.070Z,4.61
2022-12-23T11:57:44.809Z,4.57
2022-12-23T11:59:31.839Z,4.57
2022-12-23T12:01:15.072Z,4.61
2022-12-23T12:02:51.140Z,4.68
2022-12-23T12:04:25.795Z,4.76
2022-12-23T12:06:01.303Z,4.84
2022-12-23T12:07:34.153Z,4.90
2022-12-23T12:09:07.144Z,4.90
2022-12-23T12:10:42.321Z,4.92
2022-12-23T12:12:20.627Z,4.93
2022-12-23T12:14:02.745Z,4.97
2022-12-23T12:15:57.711Z,5.07
2022-12-23T12:17:41.451Z,5.16
2022-12-23T12:19:26.113Z,5.20
2022-12-23T12:21:15.681Z,5.18
2022-12-23T12:23:00.028Z,5.16
2022-12-23T12:24:41.833Z,5.12
2022-12-23T12:26:35.034Z,5.16
2022-12-23T12:28:18.004Z,5.22
2022-12-23T12:30:04.571Z,5.23
2022-12-23T12:31:44.136Z,5.14
2022-12-23T12:33:31.021Z,5.08
2022-12-23T12:35:10.533Z,5.03
2022-12-23T12:37:02.479Z,5.11
2022-12-23T12:38:39.311Z,5.21
2022-12-23T12:40:18.535Z,5.32
2022-12-23T12:42:05.522Z,5.41
2022-12-23T12:43:42.659Z,5.50
2022-12-23T12:45:22.573Z,5.52
2022-12-23T12:47:44.429Z,5.47
2022-12-23T12:49:20.512Z,5.49
2022-12-23T12:51:01.018Z,5.51
2022-12-23T12:52:39.972Z,5.51
2022-12-23T12:54:33.845Z,5.51
2022-12-23T12:56:18.035Z,5.51
2022-12-23T12:57:50.050Z,5.55
2022-12-23T12:59:40.086Z,5.49
2022-12-23T13:01:18.014Z,5.44
2022-12-23T13:02:56.371Z,5.37
2022-12-23T13:05:17.667Z,5.26
2022-12-23T13:07:01.837Z,5.23
2022-12-23T13:08:37.942Z,5.19
2022-12-23T13:10:34.246Z,5.17
2022-12-23T13:12:36.033Z,5.20
2022-12-23T13:14:18.436Z,5.16
2022-12-23T13:16:00.129Z,5.09
2022-12-23T13:17:53.393Z,5.04
2022-12-23T13:19:38.222Z,5.00
2022-12-23T13:21:10.477Z,4.99
2022-12-23T13:22:45.597Z,4.93
2022-12-23T13:24:37.160Z,4.91
2022-12-23T13:26:24.727Z,4.86
2022-12-23T13:27:59.418Z,4.85
2022-12-23T13:29:59.205Z,4.88
2022-12-23T13:31:59.185Z,4.86
2022-12-23T13:33:55.200Z,4.85
2022-12-23T13:36:01.225Z,4.79
2022-12-23T13:37:50.364Z,4.77
2022-12-23T13:39:22.442Z,4.72
2022-12-23T13:41:00.073Z,4.70
2022-12-23T13:42:42.130Z,4.68
2022-12-23T13:44:15.320Z,4.65
2022-12-23T13:45:49.005Z,4.61
2022-12-23T13:48:05.093Z,4.59
2022-12-23T13:49:40.282Z,4.63
2022-12-23T13:51:26.210Z,4.67
2022-12-23T13:53:18.707Z,4.76
2022-12-23T13:55:02.914Z,4.79
2022-12-23T13:56:35.259Z,4.87
2022-12-23T13:58:19.197Z,4.93
2022-12-23T14:00:19.084Z,4.99
2022-12-23T14:01:52.729Z,5.03
2022-12-23T14:03:32.758Z,5.00
2022-12-23T14:05:26.563Z,4.99
2022-12-23T14:07:00.105Z,5.00
2022-12-23T14:08:42.086Z,5.04
2022-12-23T14:10:22.936Z,5.10
2022-12-23T14:11:59.580Z,5.12
2022-12-23T14:13:49.927Z,5.09
2022-12-23T14:15:42.996Z,5.06
2022-12-23T14:17:25.308Z,4.99
2022-12-23T14:19:29.603Z,4.97
2022-12-23T14:21:04.590Z,4.93
2022-12-23T14:22:59.516Z,4.89
2022-12-23T14:24:37.498Z,4.84
2022-12-23T14:26:19.773Z,4.84
2022-12-23T14:28:33.726Z,4.84
2022-12-23T14:30:11.833Z,4.88
2022-12-23T14:31:47.895Z,4.83
2022-12-23T14:33:30.347Z,4.79
2022-12-23T14:35:20.563Z,4.76
2022-12-23T14:37:20.629Z,4.74
2022-12-23T14:39:11.396Z,4.68
2022-12-23T14:40:43.654Z,4.67
2022-12-23T14:42:34.772Z,4.58
2022-12-23T14:44:36.073Z,4.55
2022-12-23T14:46:48.387Z,4.51
2022-12-23T14:48:41.903Z,4.47
2022-12-23T14:50:35.289Z,4.45
2022-12-23T14:52:38.027Z,4.41
2022-12-23T14:54:18.329Z,4.39
2022-12-23T14:55:52.719Z,4.39
2022-12-23T14:57:29.819Z,4.34
2022-12-23T14:59:23.144Z,4.33
2022-12-23T15:01:12.590Z,4.28
2022-12-23T15:02:44.926Z,4.32
2022-12-23T15:04:22.269Z,4.31
2022-12-23T15:05:55.019Z,4.32
2022-12-23T15:07:46.616Z,4.31
2022-12-23T15:09:25.769Z,4.29
2022-12-23T15:10:58.708Z,4.30
2022-12-23T15:12:30.728Z,4.29
2022-12-23T15:14:09.338Z,4.29
2022-12-23T15:15:57.396Z,4.29
2022-12-23T15:17:39.068Z,4.28
2022-12-23T15:19:44.015Z,4.29
2022-12-23T15:21:16.134Z,4.32
2022-12-23T15:22:49.575Z,4.34
2022-12-23T15:24:22.500Z,4.34
2022-12-23T15:26:00.643Z,4.35
2022-12-23T15:27:37.486Z,4.36
2022-12-23T15:29:10.223Z,4.36
2022-12-23T15:30:56.598Z,4.33
2022-12-23T15:32:29.704Z,4.34
2022-12-23T15:34:16.575Z,4.34
2022-12-23T15:35:49.794Z,4.32
2022-12-23T15:37:29.449Z,4.26
2022-12-23T15:39:03.327Z,4.26
2022-12-23T15:40:38.490Z,4.24
2022-12-23T15:42:27.847Z,4.22
2022-12-23T15:44:01.894Z,4.19
2022-12-23T15:45:39.928Z,4.19
2022-12-23T15:47:32.375Z,4.19
2022-12-23T15:49:05.318Z,4.20
2022-12-23T15:50:42.098Z,4.25
2022-12-23T15:52:20.097Z,4.28
2022-12-23T15:53:56.117Z,4.25
2022-12-23T15:55:31.069Z,4.24
2022-12-23T15:57:04.589Z,4.16
2022-12-23T15:58:40.404Z,4.10
2022-12-23T16:00:28.861Z,4.06
2022-12-23T16:03:00.330Z,4.02
2022-12-23T16:04:33.731Z,3.99
2022-12-23T16:06:15.917Z,4.02
2022-12-23T16:07:50.964Z,3.97
2022-12-23T16:09:31.525Z,3.97
2022-12-23T16:11:21.095Z,3.95
2022-12-23T16:12:53.264Z,3.93
2022-12-23T16:14:31.368Z,3.93
2022-12-23T16:16:40.733Z,3.92
2022-12-23T16:18:26.332Z,3.92
2022-12-23T16:20:50.098Z,3.89
2022-12-23T16:22:30.296Z,3.88
2022-12-23T16:24:08.592Z,3.89
2022-12-23T16:25:48.539Z,3.88
2022-12-23T16:27:41.639Z,3.87
2022-12-23T16:29:15.279Z,3.89
2022-12-23T16:30:49.629Z,3.89
2022-12-23T16:32:21.896Z,3.84
2022-12-23T16:33:58.633Z,3.83
2022-12-23T16:35:40.279Z,3.82
2022-12-23T16:37:12.478Z,3.83
2022-12-23T16:38:45.126Z,3.84
2022-12-23T16:40:17.777Z,3.85
2022-12-23T16:41:50.627Z,3.87
2022-12-23T16:43:24.499Z,3.90
2022-12-23T16:44:56.770Z,3.89
2022-12-23T16:46:34.241Z,3.90
2022-12-23T16:48:36.533Z,3.91
2022-12-23T16:50:14.401Z,3.87
2022-12-23T16:51:47.468Z,3.89
2022-12-23T16:53:20.770Z,3.88
2022-12-23T16:54:52.959Z,3.88
2022-12-23T16:56:29.948Z,3.87
2022-12-23T16:58:02.078Z,3.85
2022-12-23T16:59:34.236Z,3.83
2022-12-23T17:01:06.561Z,3.83
2022-12-23T17:02:38.742Z,3.85
2022-12-23T17:04:11.035Z,3.83
2022-12-23T17:05:44.090Z,3.81
2022-12-23T17:07:16.174Z,3.83
2022-12-23T17:08:48.776Z,3.83
2022-12-23T17:10:20.983Z,3.84
2022-12-23T17:11:53.751Z,3.87
2022-12-23T17:13:25.860Z,3.83
2022-12-23T17:14:58.768Z,3.83
2022-12-23T17:16:31.334Z,3.84
2022-12-23T17:18:03.631Z,3.86
2022-12-23T17:19:35.743Z,3.88
2022-12-23T17:21:39.085Z,3.86
2022-12-23T17:23:26.787Z,3.85
2022-12-23T17:24:58.922Z,3.88
2022-12-23T17:26:31.145Z,3.87
2022-12-23T17:28:03.292Z,3.89
2022-12-23T17:29:35.467Z,3.93
2022-12-23T17:31:13.949Z,3.91
2022-12-23T17:32:54.764Z,3.90
2022-12-23T17:34:26.992Z,3.91
2022-12-23T17:36:00.072Z,3.87
2022-12-23T17:37:32.259Z,3.88
2022-12-23T17:39:04.663Z,3.89
2022-12-23T17:40:38.732Z,3.91
2022-12-23T17:42:23.271Z,3.90
2022-12-23T17:43:57.749Z,3.91
2022-12-23T17:45:31.118Z,3.93
2022-12-23T17:47:10.946Z,3.95
2022-12-23T17:48:43.798Z,3.97
2022-12-23T17:50:16.258Z,3.98
2022-12-23T17:51:48.669Z,4.00
2022-12-23T17:53:20.970Z,4.02
2022-12-23T17:54:53.757Z,4.03
2022-12-23T17:56:29.706Z,4.02
2022-12-23T17:58:02.720Z,4.03
2022-12-23T17:59:35.000Z,4.02
2022-12-23T18:01:13.527Z,4.01
2022-12-23T18:02:47.467Z,4.03
2022-12-23T18:04:20.920Z,4.03
2022-12-23T18:06:01.201Z,4.03
2022-12-23T18:07:34.924Z,4.02
2022-12-23T18:09:07.272Z,3.99
2022-12-23T18:10:40.885Z,4.02
2022-12-23T18:12:34.359Z,4.05
2022-12-23T18:14:08.221Z,4.09
2022-12-23T18:15:42.708Z,4.08
2022-12-23T18:17:16.380Z,4.11
2022-12-23T18:18:48.602Z,4.07
2022-12-23T18:20:23.174Z,4.07
2022-12-23T18:21:57.154Z,4.05
2022-12-23T18:23:32.160Z,4.04
2022-12-23T18:25:04.924Z,4.02
2022-12-23T18:26:37.570Z,4.00
2022-12-23T18:28:11.408Z,3.98
2022-12-23T18:29:44.985Z,3.96
2022-12-23T18:31:24.273Z,3.97
2022-12-23T18:32:57.127Z,3.97
2022-12-23T18:34:30.240Z,3.95
2022-12-23T18:36:03.031Z,3.93
2022-12-23T18:37:38.300Z,3.94
2022-12-23T18:39:17.869Z,3.93
2022-12-23T18:40:53.996Z,3.92
2022-12-23T18:42:26.764Z,3.92
2022-12-23T18:43:59.749Z,3.90
2022-12-23T18:45:38.667Z,3.90
2022-12-23T18:47:12.281Z,3.91
2022-12-23T18:48:44.844Z,3.90
2022-12-23T18:50:17.368Z,3.88
2022-12-23T18:51:49.505Z,3.88
2022-12-23T18:53:24.977Z,3.91
2022-12-23T18:54:57.593Z,3.91
2022-12-23T18:56:29.832Z,3.89
2022-12-23T18:58:02.027Z,3.88
2022-12-23T18:59:37.623Z,3.90
2022-12-23T19:01:15.029Z,3.92
2022-12-23T19:02:48.571Z,3.94
2022-12-23T19:04:20.974Z,3.95
2022-12-23T19:05:54.389Z,3.94
2022-12-23T19:07:26.939Z,3.91
2022-12-23T19:08:59.147Z,3.89
2022-12-23T19:10:34.110Z,3.89
2022-12-23T19:12:06.710Z,3.89
2022-12-23T19:13:38.910Z,3.88
2022-12-23T19:15:11.531Z,3.88
2022-12-23T19:16:49.267Z,3.90
2022-12-23T19:18:23.869Z,3.91
2022-12-23T19:19:58.391Z,3.91
2022-12-23T19:21:30.502Z,3.92
2022-12-23T19:23:02.667Z,3.93
2022-12-23T19:24:34.763Z,3.94
2022-12-23T19:26:11.064Z,3.92
2022-12-23T19:27:44.116Z,3.90
2022-12-23T19:29:16.865Z,3.91
2022-12-23T19:30:49.343Z,3.91
2022-12-23T19:32:24.994Z,3.92
2022-12-23T19:33:57.354Z,3.89
2022-12-23T19:35:29.533Z,3.89
2022-12-23T19:37:01.691Z,3.86
2022-12-23T19:38:33.941Z,3.87
2022-12-23T19:40:06.955Z,3.88
2022-12-23T19:41:38.958Z,3.91
2022-12-23T19:43:11.043Z,3.92
2022-12-23T19:44:43.324Z,3.91
2022-12-23T19:46:16.505Z,3.90
2022-12-23T19:47:48.733Z,3.90
2022-12-23T19:49:20.865Z,3.90
2022-12-23T19:51:00.396Z,3.90
2022-12-23T19:52:33.246Z,3.91
2022-12-23T19:54:05.357Z,3.85
2022-12-23T19:55:37.439Z,3.83
2022-12-23T19:57:09.578Z,3.85
2022-12-23T19:58:43.256Z,3.89
2022-12-23T20:00:16.087Z,3.89
2022-12-23T20:01:48.919Z,3.85
2022-12-23T20:03:21.133Z,3.87
2022-12-23T20:04:53.618Z,3.88
2022-12-23T20:06:33.251Z,3.83
2022-12-23T20:08:05.689Z,3.82
2022-12-23T20:09:38.749Z,3.81
2022-12-23T20:11:15.374Z,3.81
2022-12-23T20:12:47.523Z,3.81
2022-12-23T20:14:21.745Z,3.82
2022-12-23T20:15:54.129Z,3.83
2022-12-23T20:17:29.158Z,3.82
2022-12-23T20:19:01.604Z,3.84
2022-12-23T20:20:33.809Z,3.84
2022-12-23T20:22:06.471Z,3.83
2022-12-23T20:23:38.819Z,3.84
2022-12-23T20:25:10.884Z,3.80
2022-12-23T20:26:43.943Z,3.81
2022-12-23T20:28:16.501Z,3.78
2022-12-23T20:29:49.021Z,3.78
2022-12-23T20:31:26.437Z,3.76
2022-12-23T20:32:59.110Z,3.76
2022-12-23T20:34:36.711Z,3.77
2022-12-23T20:36:13.161Z,3.74
2022-12-23T20:37:45.570Z,3.76
2022-12-23T20:39:17.709Z,3.76
2022-12-23T20:40:49.907Z,3.81
2022-12-23T20:42:22.165Z,3.77
2022-12-23T20:44:31.604Z,3.76
2022-12-23T20:45:46.723Z,3.74
2022-12-23T20:47:18.921Z,3.73
2022-12-23T20:48:51.678Z,3.70
2022-12-23T20:50:26.442Z,3.69
2022-12-23T20:51:58.584Z,3.73
2022-12-23T20:53:30.947Z,3.73
2022-12-23T20:55:03.191Z,3.75
2022-12-23T20:56:35.595Z,3.74
2022-12-23T20:58:30.685Z,3.74
2022-12-23T21:00:05.006Z,3.74
2022-12-23T21:01:39.780Z,3.76
2022-12-23T21:03:12.008Z,3.77
2022-12-23T21:04:44.453Z,3.79
2022-12-23T21:06:16.609Z,3.82
2022-12-23T21:07:48.680Z,3.83
2022-12-23T21:09:21.005Z,3.85
2022-12-23T21:10:57.749Z,3.87
2022-12-23T21:12:29.967Z,3.91
2022-12-23T21:14:06.677Z,3.95
2022-12-23T21:15:39.510Z,3.99
2022-12-23T21:17:11.708Z,4.00
2022-12-23T21:18:46.101Z,3.99
2022-12-23T21:20:18.211Z,4.02
2022-12-23T21:21:51.461Z,4.04
2022-12-23T21:23:23.535Z,4.08
2022-12-23T21:24:55.741Z,4.07
2022-12-23T21:26:29.551Z,4.04
2022-12-23T21:28:01.682Z,4.05
2022-12-23T21:29:33.818Z,4.05
2022-12-23T21:31:06.732Z,4.05
2022-12-23T21:32:38.818Z,4.08
2022-12-23T21:34:18.025Z,4.09
2022-12-23T21:35:50.116Z,4.09
2022-12-23T21:37:22.251Z,4.11
2022-12-23T21:38:54.822Z,4.11
2022-12-23T21:40:27.296Z,4.11
2022-12-23T21:41:59.370Z,4.13
2022-12-23T21:43:31.883Z,4.11
2022-12-23T21:45:04.673Z,4.13
2022-12-23T21:46:36.963Z,4.13
2022-12-23T21:48:09.045Z,4.13
2022-12-23T21:49:42.513Z,4.14
2022-12-23T21:51:17.637Z,4.14
2022-12-23T21:52:49.777Z,4.15
2022-12-23T21:54:21.852Z,4.18
2022-12-23T21:55:54.041Z,4.22
2022-12-23T21:57:26.185Z,4.21
2022-12-23T21:59:03.968Z,4.23
2022-12-23T22:00:36.106Z,4.23
2022-12-23T22:02:15.572Z,4.25
2022-12-23T22:03:49.419Z,4.28
2022-12-23T22:05:21.852Z,4.27
2022-12-23T22:06:53.947Z,4.30
2022-12-23T22:08:26.314Z,4.29
2022-12-23T22:09:58.466Z,4.30
2022-12-23T22:11:33.425Z,4.34
2022-12-23T22:13:05.687Z,4.32
2022-12-23T22:14:37.959Z,4.32
2022-12-23T22:16:12.489Z,4.36
2022-12-23T22:17:44.768Z,4.36
2022-12-23T22:19:18.070Z,4.33
2022-12-23T22:20:50.331Z,4.35
2022-12-23T22:22:22.439Z,4.31
2022-12-23T22:23:55.656Z,4.33
2022-12-23T22:25:27.899Z,4.32
2022-12-23T22:26:59.985Z,4.32
2022-12-23T22:28:33.663Z,4.30
2022-12-23T22:30:06.618Z,4.30
2022-12-23T22:31:49.400Z,4.29
2022-12-23T22:33:21.583Z,4.28
2022-12-23T22:34:53.752Z,4.29
2022-12-23T22:36:26.240Z,4.30
2022-12-23T22:37:59.205Z,4.32
2022-12-23T22:39:31.262Z,4.33
2022-12-23T22:41:03.654Z,4.34
2022-12-23T22:42:35.836Z,4.35
2022-12-23T22:44:09.794Z,4.36
2022-12-23T22:45:42.120Z,4.36
2022-12-23T22:47:14.433Z,4.38
2022-12-23T22:48:46.919Z,4.38
2022-12-23T22:50:18.968Z,4.40
2022-12-23T22:51:51.093Z,4.39
2022-12-23T22:53:29.335Z,4.41
2022-12-23T22:55:02.043Z,4.45
2022-12-23T22:56:34.169Z,4.48
2022-12-23T22:58:06.339Z,4.47
2022-12-23T22:59:38.455Z,4.49
2022-12-23T23:01:23.655Z,4.49
2022-12-23T23:02:55.724Z,4.49
2022-12-23T23:04:27.868Z,4.45
2022-12-23T23:06:01.468Z,4.48
2022-12-23T23:07:33.744Z,4.47
2022-12-23T23:09:08.600Z,4.48
2022-12-23T23:10:40.720Z,4.51
2022-12-23T23:12:12.872Z,4.51
2022-12-23T23:13:45.130Z,4.52
2022-12-23T23:15:17.251Z,4.51
2022-12-23T23:16:49.545Z,4.52
2022-12-23T23:18:22.812Z,4.55
2022-12-23T23:19:55.457Z,4.55
2022-12-23T23:21:27.750Z,4.55
2022-12-23T23:22:59.875Z,4.55
2022-12-23T23:24:32.033Z,4.54
2022-12-23T23:26:05.208Z,4.55
2022-12-23T23:27:37.315Z,4.57
2022-12-23T23:29:09.454Z,4.55
2022-12-23T23:30:41.635Z,4.56
2022-12-23T23:32:13.860Z,4.53
2022-12-23T23:33:46.056Z,4.49
2022-12-23T23:35:18.415Z,4.46
2022-12-23T23:36:50.556Z,4.47
2022-12-23T23:38:23.299Z,4.46
2022-12-23T23:39:55.411Z,4.47
2022-12-23T23:41:27.652Z,4.48
2022-12-23T23:42:59.876Z,4.49
2022-12-23T23:44:32.092Z,4.49
2022-12-23T23:46:04.373Z,4.49
2022-12-23T23:47:36.597Z,4.48
2022-12-23T23:49:08.763Z,4.47
2022-12-23T23:50:41.094Z,4.44
2022-12-23T23:52:13.280Z,4.46
2022-12-23T23:53:45.639Z,4.46
2022-12-23T23:55:17.967Z,4.45
2022-12-23T23:56:50.165Z,4.48
2022-12-23T23:58:22.333Z,4.52
2022-12-23T23:59:54.526Z,4.54
